sensor_id;sensor_type;location;lat;lon;timestamp;P1;durP1;ratioP1;P2;durP2;ratioP2
735;SDS011;352;48.626;9.238;2023-04-15T05:36:54;6.13;;;5.63;;
735;SDS011;352;48.626;9.238;2023-04-15T05:39:21;5.72;;;4.53;;
735;SDS011;352;48.626;9.238;2023-04-15T05:41:48;7.72;;;4.60;;
735;SDS011;352;48.626;9.238;2023-04-15T05:44:15;4.82;;;4.25;;
735;SDS011;352;48.626;9.238;2023-04-15T05:46:41;7.85;;;5.70;;
735;SDS011;352;48.626;9.238;2023-04-15T05:49:08;13.02;;;7.70;;
735;SDS011;352;48.626;9.238;2023-04-15T05:51:35;9.95;;;7.10;;
735;SDS011;352;48.626;9.238;2023-04-15T05:54:03;10.65;;;7.75;;
735;SDS011;352;48.626;9.238;2023-04-15T05:56:29;7.75;;;6.72;;
735;SDS011;352;48.626;9.238;2023-04-15T05:58:56;5.35;;;4.55;;
735;SDS011;352;48.626;9.238;2023-04-15T06:01:23;7.45;;;4.70;;
735;SDS011;352;48.626;9.238;2023-04-15T06:03:50;5.10;;;4.60;;
735;SDS011;352;48.626;9.238;2023-04-15T06:06:16;6.05;;;3.95;;
735;SDS011;352;48.626;9.238;2023-04-15T06:08:44;5.97;;;4.45;;
735;SDS011;352;48.626;9.238;2023-04-15T06:11:12;5.03;;;4.63;;
735;SDS011;352;48.626;9.238;2023-04-15T06:13:39;6.03;;;4.82;;
735;SDS011;352;48.626;9.238;2023-04-15T06:16:06;5.30;;;4.80;;
735;SDS011;352;48.626;9.238;2023-04-15T06:18:33;6.47;;;4.00;;
735;SDS011;352;48.626;9.238;2023-04-15T06:20:59;5.25;;;4.10;;
735;SDS011;352;48.626;9.238;2023-04-15T06:23:26;5.80;;;4.15;;
735;SDS011;352;48.626;9.238;2023-04-15T06:25:53;5.10;;;4.40;;
735;SDS011;352;48.626;9.238;2023-04-15T06:28:21;6.68;;;4.75;;
735;SDS011;352;48.626;9.238;2023-04-15T06:30:48;4.85;;;4.45;;
735;SDS011;352;48.626;9.238;2023-04-15T06:33:14;7.40;;;4.30;;
735;SDS011;352;48.626;9.238;2023-04-15T06:35:41;6.10;;;4.18;;
735;SDS011;352;48.626;9.238;2023-04-15T06:38:08;4.80;;;3.90;;
735;SDS011;352;48.626;9.238;2023-04-15T06:40:35;5.00;;;4.60;;
735;SDS011;352;48.626;9.238;2023-04-15T06:43:01;7.55;;;4.15;;
735;SDS011;352;48.626;9.238;2023-04-15T06:45:30;9.98;;;5.20;;
735;SDS011;352;48.626;9.238;2023-04-15T06:47:57;4.60;;;4.20;;
735;SDS011;352;48.626;9.238;2023-04-15T06:50:23;4.53;;;4.10;;
735;SDS011;352;48.626;9.238;2023-04-15T06:52:51;4.95;;;4.03;;
735;SDS011;352;48.626;9.238;2023-04-15T06:55:18;4.90;;;4.50;;
735;SDS011;352;48.626;9.238;2023-04-15T06:57:45;6.00;;;4.80;;
735;SDS011;352;48.626;9.238;2023-04-15T07:00:12;5.33;;;4.73;;
735;SDS011;352;48.626;9.238;2023-04-15T07:02:41;6.33;;;4.77;;
735;SDS011;352;48.626;9.238;2023-04-15T07:05:07;6.70;;;4.97;;
735;SDS011;352;48.626;9.238;2023-04-15T07:07:34;9.13;;;4.67;;
735;SDS011;352;48.626;9.238;2023-04-15T07:10:01;7.40;;;4.50;;
735;SDS011;352;48.626;9.238;2023-04-15T07:12:28;5.03;;;4.53;;
735;SDS011;352;48.626;9.238;2023-04-15T07:14:55;8.73;;;5.13;;
735;SDS011;352;48.626;9.238;2023-04-15T07:17:21;5.97;;;4.80;;
735;SDS011;352;48.626;9.238;2023-04-15T07:19:49;8.40;;;4.83;;
735;SDS011;352;48.626;9.238;2023-04-15T07:22:16;7.40;;;4.90;;
735;SDS011;352;48.626;9.238;2023-04-15T07:24:43;5.83;;;4.57;;
735;SDS011;352;48.626;9.238;2023-04-15T07:27:10;6.47;;;4.80;;
735;SDS011;352;48.626;9.238;2023-04-15T07:29:36;6.60;;;4.60;;
735;SDS011;352;48.626;9.238;2023-04-15T07:32:03;5.53;;;5.03;;
735;SDS011;352;48.626;9.238;2023-04-15T07:34:31;5.93;;;4.33;;
735;SDS011;352;48.626;9.238;2023-04-15T07:36:59;7.63;;;5.23;;
735;SDS011;352;48.626;9.238;2023-04-15T07:39:26;4.83;;;4.40;;
735;SDS011;352;48.626;9.238;2023-04-15T07:41:53;6.00;;;3.97;;
735;SDS011;352;48.626;9.238;2023-04-15T07:44:20;6.97;;;3.93;;
735;SDS011;352;48.626;9.238;2023-04-15T07:46:47;4.77;;;4.37;;
735;SDS011;352;48.626;9.238;2023-04-15T07:49:13;4.90;;;4.20;;
735;SDS011;352;48.626;9.238;2023-04-15T07:51:40;9.30;;;4.43;;
735;SDS011;352;48.626;9.238;2023-04-15T07:54:09;5.47;;;4.87;;
735;SDS011;352;48.626;9.238;2023-04-15T07:56:36;6.80;;;4.90;;
735;SDS011;352;48.626;9.238;2023-04-15T07:59:03;5.80;;;4.20;;
735;SDS011;352;48.626;9.238;2023-04-15T08:01:30;4.77;;;4.27;;
735;SDS011;352;48.626;9.238;2023-04-15T08:03:57;6.10;;;3.97;;
735;SDS011;352;48.626;9.238;2023-04-15T08:06:24;4.60;;;4.07;;
735;SDS011;352;48.626;9.238;2023-04-15T08:08:51;7.70;;;4.23;;
735;SDS011;352;48.626;9.238;2023-04-15T08:11:19;4.57;;;4.13;;
735;SDS011;352;48.626;9.238;2023-04-15T08:13:47;8.27;;;4.93;;
735;SDS011;352;48.626;9.238;2023-04-15T08:16:16;6.60;;;5.47;;
735;SDS011;352;48.626;9.238;2023-04-15T08:18:44;20.60;;;15.30;;
735;SDS011;352;48.626;9.238;2023-04-15T08:21:11;11.07;;;8.90;;
735;SDS011;352;48.626;9.238;2023-04-15T08:23:38;5.60;;;5.17;;
735;SDS011;352;48.626;9.238;2023-04-15T08:26:05;6.53;;;5.03;;
735;SDS011;352;48.626;9.238;2023-04-15T08:28:34;5.40;;;4.90;;
735;SDS011;352;48.626;9.238;2023-04-15T08:31:02;6.63;;;5.07;;
735;SDS011;352;48.626;9.238;2023-04-15T08:33:29;5.27;;;4.37;;
735;SDS011;352;48.626;9.238;2023-04-15T08:35:55;5.27;;;4.30;;
735;SDS011;352;48.626;9.238;2023-04-15T08:38:22;6.13;;;4.17;;
735;SDS011;352;48.626;9.238;2023-04-15T08:40:49;6.73;;;4.57;;
735;SDS011;352;48.626;9.238;2023-04-15T08:43:17;6.90;;;4.33;;
735;SDS011;352;48.626;9.238;2023-04-15T08:45:49;6.00;;;4.60;;
735;SDS011;352;48.626;9.238;2023-04-15T08:48:17;4.63;;;4.23;;
735;SDS011;352;48.626;9.238;2023-04-15T08:50:44;7.50;;;4.30;;
735;SDS011;352;48.626;9.238;2023-04-15T08:53:12;4.70;;;4.07;;
735;SDS011;352;48.626;9.238;2023-04-15T08:55:41;5.43;;;4.30;;
735;SDS011;352;48.626;9.238;2023-04-15T08:58:10;4.40;;;3.90;;
735;SDS011;352;48.626;9.238;2023-04-15T09:00:37;4.50;;;4.10;;
735;SDS011;352;48.626;9.238;2023-04-15T09:03:05;4.30;;;3.57;;
735;SDS011;352;48.626;9.238;2023-04-15T09:05:33;9.43;;;4.30;;
735;SDS011;352;48.626;9.238;2023-04-15T09:08:00;4.27;;;3.87;;
735;SDS011;352;48.626;9.238;2023-04-15T09:10:28;5.30;;;3.40;;
735;SDS011;352;48.626;9.238;2023-04-15T09:12:55;5.20;;;3.53;;
735;SDS011;352;48.626;9.238;2023-04-15T09:15:22;4.17;;;3.77;;
735;SDS011;352;48.626;9.238;2023-04-15T09:17:51;5.10;;;3.90;;
735;SDS011;352;48.626;9.238;2023-04-15T09:20:19;5.80;;;3.77;;
735;SDS011;352;48.626;9.238;2023-04-15T09:22:47;5.67;;;4.13;;
735;SDS011;352;48.626;9.238;2023-04-15T09:25:23;6.70;;;3.30;;
735;SDS011;352;48.626;9.238;2023-04-15T09:27:52;4.73;;;3.30;;
735;SDS011;352;48.626;9.238;2023-04-15T09:30:20;4.00;;;3.60;;
735;SDS011;352;48.626;9.238;2023-04-15T09:32:48;4.97;;;4.40;;
735;SDS011;352;48.626;9.238;2023-04-15T09:35:15;5.10;;;4.07;;
735;SDS011;352;48.626;9.238;2023-04-15T09:37:43;7.50;;;4.57;;
735;SDS011;352;48.626;9.238;2023-04-15T09:40:11;4.97;;;3.73;;
735;SDS011;352;48.626;9.238;2023-04-15T09:42:52;4.53;;;3.80;;
735;SDS011;352;48.626;9.238;2023-04-15T09:45:20;6.23;;;3.53;;
735;SDS011;352;48.626;9.238;2023-04-15T09:47:47;5.67;;;3.73;;
735;SDS011;352;48.626;9.238;2023-04-15T09:50:16;3.80;;;3.00;;
735;SDS011;352;48.626;9.238;2023-04-15T09:52:45;5.97;;;2.97;;
735;SDS011;352;48.626;9.238;2023-04-15T09:55:13;3.60;;;2.97;;
735;SDS011;352;48.626;9.238;2023-04-15T09:57:41;4.50;;;3.17;;
735;SDS011;352;48.626;9.238;2023-04-15T10:00:08;3.30;;;3.10;;
735;SDS011;352;48.626;9.238;2023-04-15T10:02:35;3.47;;;2.93;;
735;SDS011;352;48.626;9.238;2023-04-15T10:05:02;4.67;;;3.90;;
735;SDS011;352;48.626;9.238;2023-04-15T10:07:30;5.53;;;3.60;;
735;SDS011;352;48.626;9.238;2023-04-15T10:09:58;6.43;;;3.13;;
735;SDS011;352;48.626;9.238;2023-04-15T10:12:26;5.17;;;3.33;;
735;SDS011;352;48.626;9.238;2023-04-15T10:14:55;6.60;;;4.47;;
735;SDS011;352;48.626;9.238;2023-04-15T10:17:26;7.33;;;6.67;;
735;SDS011;352;48.626;9.238;2023-04-15T10:19:53;6.53;;;4.87;;
735;SDS011;352;48.626;9.238;2023-04-15T10:22:21;5.53;;;5.03;;
735;SDS011;352;48.626;9.238;2023-04-15T10:24:48;4.90;;;3.90;;
735;SDS011;352;48.626;9.238;2023-04-15T10:27:17;4.10;;;3.63;;
735;SDS011;352;48.626;9.238;2023-04-15T10:29:46;3.70;;;3.37;;
735;SDS011;352;48.626;9.238;2023-04-15T10:32:14;3.40;;;3.20;;
735;SDS011;352;48.626;9.238;2023-04-15T10:34:41;4.03;;;3.40;;
735;SDS011;352;48.626;9.238;2023-04-15T10:37:08;4.10;;;3.20;;
735;SDS011;352;48.626;9.238;2023-04-15T10:39:42;3.40;;;3.10;;
735;SDS011;352;48.626;9.238;2023-04-15T10:42:09;3.37;;;2.70;;
735;SDS011;352;48.626;9.238;2023-04-15T10:44:40;3.97;;;2.83;;
735;SDS011;352;48.626;9.238;2023-04-15T10:47:09;7.37;;;3.33;;
735;SDS011;352;48.626;9.238;2023-04-15T10:49:45;5.50;;;2.50;;
735;SDS011;352;48.626;9.238;2023-04-15T10:52:14;3.57;;;3.27;;
735;SDS011;352;48.626;9.238;2023-04-15T10:55:00;4.00;;;3.60;;
735;SDS011;352;48.626;9.238;2023-04-15T10:57:33;4.10;;;3.37;;
735;SDS011;352;48.626;9.238;2023-04-15T11:00:10;5.73;;;3.40;;
735;SDS011;352;48.626;9.238;2023-04-15T11:02:45;2.57;;;2.37;;
735;SDS011;352;48.626;9.238;2023-04-15T11:05:13;3.23;;;2.93;;
735;SDS011;352;48.626;9.238;2023-04-15T11:07:46;3.33;;;2.90;;
735;SDS011;352;48.626;9.238;2023-04-15T11:13:15;6.93;;;3.23;;
735;SDS011;352;48.626;9.238;2023-04-15T11:15:44;3.60;;;3.20;;
735;SDS011;352;48.626;9.238;2023-04-15T11:18:12;4.27;;;2.93;;
735;SDS011;352;48.626;9.238;2023-04-15T11:20:41;6.40;;;3.20;;
735;SDS011;352;48.626;9.238;2023-04-15T11:23:10;3.47;;;2.80;;
735;SDS011;352;48.626;9.238;2023-04-15T11:25:36;3.50;;;2.60;;
735;SDS011;352;48.626;9.238;2023-04-15T11:28:05;4.13;;;2.80;;
735;SDS011;352;48.626;9.238;2023-04-15T11:30:32;2.77;;;2.57;;
735;SDS011;352;48.626;9.238;2023-04-15T11:33:02;3.27;;;2.73;;
735;SDS011;352;48.626;9.238;2023-04-15T11:35:30;4.80;;;3.10;;
735;SDS011;352;48.626;9.238;2023-04-15T11:37:57;3.27;;;2.90;;
735;SDS011;352;48.626;9.238;2023-04-15T11:40:28;5.00;;;3.20;;
735;SDS011;352;48.626;9.238;2023-04-15T11:43:03;3.73;;;3.33;;
735;SDS011;352;48.626;9.238;2023-04-15T11:45:31;6.03;;;3.80;;
735;SDS011;352;48.626;9.238;2023-04-15T11:48:06;6.13;;;4.07;;
735;SDS011;352;48.626;9.238;2023-04-15T11:50:34;4.00;;;3.27;;
735;SDS011;352;48.626;9.238;2023-04-15T11:53:02;3.73;;;3.10;;
735;SDS011;352;48.626;9.238;2023-04-15T11:55:39;5.97;;;3.93;;
735;SDS011;352;48.626;9.238;2023-04-15T11:58:08;5.47;;;3.87;;
735;SDS011;352;48.626;9.238;2023-04-15T12:00:36;5.00;;;3.90;;
735;SDS011;352;48.626;9.238;2023-04-15T12:06:05;6.00;;;3.77;;
735;SDS011;352;48.626;9.238;2023-04-15T12:08:46;5.23;;;3.80;;
735;SDS011;352;48.626;9.238;2023-04-15T12:11:18;3.40;;;3.07;;
735;SDS011;352;48.626;9.238;2023-04-15T12:13:46;6.97;;;2.60;;
735;SDS011;352;48.626;9.238;2023-04-15T12:16:15;4.63;;;3.00;;
735;SDS011;352;48.626;9.238;2023-04-15T12:18:45;3.93;;;3.53;;
735;SDS011;352;48.626;9.238;2023-04-15T12:21:12;7.17;;;3.40;;
735;SDS011;352;48.626;9.238;2023-04-15T12:23:46;3.70;;;3.20;;
735;SDS011;352;48.626;9.238;2023-04-15T12:26:14;3.93;;;3.60;;
735;SDS011;352;48.626;9.238;2023-04-15T12:28:41;5.80;;;5.30;;
735;SDS011;352;48.626;9.238;2023-04-15T12:31:08;4.03;;;3.67;;
735;SDS011;352;48.626;9.238;2023-04-15T12:33:37;5.43;;;4.10;;
735;SDS011;352;48.626;9.238;2023-04-15T12:36:05;6.53;;;3.77;;
735;SDS011;352;48.626;9.238;2023-04-15T12:38:32;4.40;;;3.23;;
735;SDS011;352;48.626;9.238;2023-04-15T12:41:00;7.90;;;3.70;;
735;SDS011;352;48.626;9.238;2023-04-15T12:43:26;5.43;;;3.90;;
735;SDS011;352;48.626;9.238;2023-04-15T12:45:53;6.07;;;3.70;;
735;SDS011;352;48.626;9.238;2023-04-15T12:48:20;8.40;;;4.73;;
735;SDS011;352;48.626;9.238;2023-04-15T12:50:47;5.73;;;4.17;;
735;SDS011;352;48.626;9.238;2023-04-15T12:53:15;8.23;;;4.67;;
735;SDS011;352;48.626;9.238;2023-04-15T12:55:42;6.60;;;4.23;;
735;SDS011;352;48.626;9.238;2023-04-15T12:58:12;5.10;;;4.10;;
735;SDS011;352;48.626;9.238;2023-04-15T13:00:39;7.13;;;4.50;;
735;SDS011;352;48.626;9.238;2023-04-15T13:03:06;4.60;;;4.20;;
735;SDS011;352;48.626;9.238;2023-04-15T13:05:32;7.40;;;5.37;;
735;SDS011;352;48.626;9.238;2023-04-15T13:08:01;7.00;;;5.17;;
735;SDS011;352;48.626;9.238;2023-04-15T13:10:29;5.97;;;5.43;;
735;SDS011;352;48.626;9.238;2023-04-15T13:12:56;4.90;;;4.50;;
735;SDS011;352;48.626;9.238;2023-04-15T13:15:23;5.10;;;4.70;;
735;SDS011;352;48.626;9.238;2023-04-15T13:17:50;4.93;;;4.40;;
735;SDS011;352;48.626;9.238;2023-04-15T13:20:16;6.03;;;4.40;;
735;SDS011;352;48.626;9.238;2023-04-15T13:22:43;5.43;;;4.73;;
735;SDS011;352;48.626;9.238;2023-04-15T13:25:10;5.13;;;4.30;;
735;SDS011;352;48.626;9.238;2023-04-15T13:27:38;4.60;;;4.20;;
735;SDS011;352;48.626;9.238;2023-04-15T13:30:05;4.60;;;4.20;;
735;SDS011;352;48.626;9.238;2023-04-15T13:32:32;4.70;;;3.93;;
735;SDS011;352;48.626;9.238;2023-04-15T13:34:59;4.53;;;4.20;;
735;SDS011;352;48.626;9.238;2023-04-15T13:37:26;4.10;;;3.70;;
735;SDS011;352;48.626;9.238;2023-04-15T13:39:54;5.27;;;4.07;;
735;SDS011;352;48.626;9.238;2023-04-15T13:42:21;4.80;;;4.30;;
735;SDS011;352;48.626;9.238;2023-04-15T13:44:49;4.27;;;3.87;;
735;SDS011;352;48.626;9.238;2023-04-15T13:47:16;6.00;;;4.10;;
735;SDS011;352;48.626;9.238;2023-04-15T13:49:45;4.03;;;3.60;;
735;SDS011;352;48.626;9.238;2023-04-15T13:52:11;5.00;;;3.47;;
735;SDS011;352;48.626;9.238;2023-04-15T13:54:38;4.50;;;3.27;;
735;SDS011;352;48.626;9.238;2023-04-15T13:57:05;4.00;;;3.37;;
735;SDS011;352;48.626;9.238;2023-04-15T13:59:32;5.20;;;3.73;;
735;SDS011;352;48.626;9.238;2023-04-15T14:02:00;3.87;;;3.33;;
735;SDS011;352;48.626;9.238;2023-04-15T14:04:27;7.30;;;3.80;;
735;SDS011;352;48.626;9.238;2023-04-15T14:06:55;2.67;;;2.47;;
735;SDS011;352;48.626;9.238;2023-04-15T14:09:22;3.23;;;2.93;;
735;SDS011;352;48.626;9.238;2023-04-15T14:11:49;4.90;;;2.93;;
735;SDS011;352;48.626;9.238;2023-04-15T14:14:16;3.13;;;2.60;;
735;SDS011;352;48.626;9.238;2023-04-15T14:16:42;3.07;;;2.80;;
735;SDS011;352;48.626;9.238;2023-04-15T14:19:11;2.80;;;2.57;;
735;SDS011;352;48.626;9.238;2023-04-15T14:21:37;3.27;;;2.43;;
735;SDS011;352;48.626;9.238;2023-04-15T14:24:04;3.97;;;2.90;;
735;SDS011;352;48.626;9.238;2023-04-15T14:26:31;4.60;;;2.80;;
735;SDS011;352;48.626;9.238;2023-04-15T14:28:58;3.03;;;2.73;;
735;SDS011;352;48.626;9.238;2023-04-15T14:31:25;2.60;;;2.40;;
735;SDS011;352;48.626;9.238;2023-04-15T14:33:51;2.90;;;2.53;;
735;SDS011;352;48.626;9.238;2023-04-15T14:36:19;3.03;;;2.40;;
735;SDS011;352;48.626;9.238;2023-04-15T14:38:46;2.20;;;2.00;;
735;SDS011;352;48.626;9.238;2023-04-15T14:41:13;2.60;;;1.90;;
735;SDS011;352;48.626;9.238;2023-04-15T14:43:40;2.30;;;2.00;;
735;SDS011;352;48.626;9.238;2023-04-15T14:46:06;3.40;;;1.83;;
735;SDS011;352;48.626;9.238;2023-04-15T14:48:33;2.70;;;1.57;;
735;SDS011;352;48.626;9.238;2023-04-15T14:51:00;2.23;;;1.10;;
735;SDS011;352;48.626;9.238;2023-04-15T14:53:28;1.10;;;1.00;;
735;SDS011;352;48.626;9.238;2023-04-15T14:55:55;1.30;;;1.20;;
735;SDS011;352;48.626;9.238;2023-04-15T14:58:21;1.87;;;1.40;;
735;SDS011;352;48.626;9.238;2023-04-15T15:00:48;2.43;;;1.90;;
735;SDS011;352;48.626;9.238;2023-04-15T15:03:15;2.63;;;2.00;;
735;SDS011;352;48.626;9.238;2023-04-15T15:05:42;4.50;;;1.83;;
735;SDS011;352;48.626;9.238;2023-04-15T15:08:10;1.97;;;1.60;;
735;SDS011;352;48.626;9.238;2023-04-15T15:10:39;4.23;;;1.90;;
735;SDS011;352;48.626;9.238;2023-04-15T15:13:07;2.50;;;2.10;;
735;SDS011;352;48.626;9.238;2023-04-15T15:15:35;3.40;;;2.10;;
735;SDS011;352;48.626;9.238;2023-04-15T15:18:02;2.20;;;1.87;;
735;SDS011;352;48.626;9.238;2023-04-15T15:20:30;3.40;;;2.20;;
735;SDS011;352;48.626;9.238;2023-04-15T15:22:57;2.13;;;1.80;;
735;SDS011;352;48.626;9.238;2023-04-15T15:25:24;2.07;;;1.97;;
735;SDS011;352;48.626;9.238;2023-04-15T15:27:52;4.43;;;2.80;;
735;SDS011;352;48.626;9.238;2023-04-15T15:30:20;2.40;;;2.20;;
735;SDS011;352;48.626;9.238;2023-04-15T15:32:46;4.17;;;2.60;;
735;SDS011;352;48.626;9.238;2023-04-15T15:35:16;2.57;;;2.33;;
735;SDS011;352;48.626;9.238;2023-04-15T15:37:43;3.83;;;3.00;;
735;SDS011;352;48.626;9.238;2023-04-15T15:40:11;3.90;;;3.00;;
735;SDS011;352;48.626;9.238;2023-04-15T15:42:38;3.40;;;2.50;;
735;SDS011;352;48.626;9.238;2023-04-15T15:45:06;2.50;;;2.30;;
735;SDS011;352;48.626;9.238;2023-04-15T15:47:33;3.97;;;2.33;;
735;SDS011;352;48.626;9.238;2023-04-15T15:50:00;2.60;;;2.40;;
735;SDS011;352;48.626;9.238;2023-04-15T15:52:27;2.90;;;2.57;;
735;SDS011;352;48.626;9.238;2023-04-15T15:54:54;3.80;;;2.50;;
735;SDS011;352;48.626;9.238;2023-04-15T15:57:20;4.07;;;2.53;;
735;SDS011;352;48.626;9.238;2023-04-15T15:59:47;5.33;;;2.70;;
735;SDS011;352;48.626;9.238;2023-04-15T16:02:15;4.50;;;2.90;;
735;SDS011;352;48.626;9.238;2023-04-15T16:04:42;3.10;;;2.80;;
735;SDS011;352;48.626;9.238;2023-04-15T16:07:09;3.20;;;3.00;;
735;SDS011;352;48.626;9.238;2023-04-15T16:09:36;2.87;;;2.67;;
735;SDS011;352;48.626;9.238;2023-04-15T16:12:04;2.73;;;2.33;;
735;SDS011;352;48.626;9.238;2023-04-15T16:14:31;5.17;;;2.53;;
735;SDS011;352;48.626;9.238;2023-04-15T16:16:58;3.43;;;2.90;;
735;SDS011;352;48.626;9.238;2023-04-15T16:19:26;2.90;;;2.20;;
735;SDS011;352;48.626;9.238;2023-04-15T16:21:53;3.10;;;2.30;;
735;SDS011;352;48.626;9.238;2023-04-15T16:24:20;3.03;;;2.73;;
735;SDS011;352;48.626;9.238;2023-04-15T16:26:47;2.70;;;2.50;;
735;SDS011;352;48.626;9.238;2023-04-15T16:29:14;3.03;;;2.73;;
735;SDS011;352;48.626;9.238;2023-04-15T16:31:40;3.83;;;3.00;;
735;SDS011;352;48.626;9.238;2023-04-15T16:34:07;2.83;;;2.60;;
735;SDS011;352;48.626;9.238;2023-04-15T16:36:36;3.33;;;3.03;;
735;SDS011;352;48.626;9.238;2023-04-15T16:39:04;3.50;;;2.30;;
735;SDS011;352;48.626;9.238;2023-04-15T16:41:31;4.87;;;3.10;;
735;SDS011;352;48.626;9.238;2023-04-15T16:44:13;3.03;;;2.17;;
735;SDS011;352;48.626;9.238;2023-04-15T16:46:46;3.07;;;2.60;;
735;SDS011;352;48.626;9.238;2023-04-15T16:49:12;3.90;;;3.00;;
735;SDS011;352;48.626;9.238;2023-04-15T16:51:40;4.10;;;3.20;;
735;SDS011;352;48.626;9.238;2023-04-15T16:54:07;3.97;;;3.33;;
735;SDS011;352;48.626;9.238;2023-04-15T16:56:34;3.30;;;2.90;;
735;SDS011;352;48.626;9.238;2023-04-15T16:59:01;3.00;;;2.80;;
735;SDS011;352;48.626;9.238;2023-04-15T17:01:27;3.90;;;3.50;;
735;SDS011;352;48.626;9.238;2023-04-15T17:03:54;3.83;;;3.23;;
735;SDS011;352;48.626;9.238;2023-04-15T17:06:21;3.60;;;3.20;;
735;SDS011;352;48.626;9.238;2023-04-15T17:08:49;3.40;;;3.10;;
735;SDS011;352;48.626;9.238;2023-04-15T17:11:16;3.00;;;2.70;;
735;SDS011;352;48.626;9.238;2023-04-15T17:13:43;3.40;;;3.10;;
735;SDS011;352;48.626;9.238;2023-04-15T17:16:10;4.07;;;3.47;;
735;SDS011;352;48.626;9.238;2023-04-15T17:19:00;3.30;;;3.00;;
735;SDS011;352;48.626;9.238;2023-04-15T17:21:28;4.10;;;3.13;;
735;SDS011;352;48.626;9.238;2023-04-15T17:23:56;4.90;;;3.40;;
735;SDS011;352;48.626;9.238;2023-04-15T17:26:23;4.00;;;3.60;;
735;SDS011;352;48.626;9.238;2023-04-15T17:31:46;5.20;;;4.10;;
735;SDS011;352;48.626;9.238;2023-04-15T17:34:45;4.80;;;3.47;;
735;SDS011;352;48.626;9.238;2023-04-15T17:38:00;3.90;;;3.38;;
735;SDS011;352;48.626;9.238;2023-04-15T17:43:47;5.17;;;4.63;;
735;SDS011;352;48.626;9.238;2023-04-15T17:46:53;5.37;;;4.30;;
735;SDS011;352;48.626;9.238;2023-04-15T18:08:38;4.43;;;3.30;;
735;SDS011;352;48.626;9.238;2023-04-15T18:14:36;3.83;;;3.40;;
735;SDS011;352;48.626;9.238;2023-04-15T18:17:05;4.05;;;3.65;;
735;SDS011;352;48.626;9.238;2023-04-15T18:19:33;4.20;;;3.70;;
735;SDS011;352;48.626;9.238;2023-04-15T18:22:13;4.32;;;3.40;;
735;SDS011;352;48.626;9.238;2023-04-15T18:24:41;3.80;;;3.50;;
735;SDS011;352;48.626;9.238;2023-04-15T18:27:08;3.80;;;3.50;;
735;SDS011;352;48.626;9.238;2023-04-15T18:29:38;3.43;;;3.13;;
735;SDS011;352;48.626;9.238;2023-04-15T18:32:11;4.35;;;3.85;;
735;SDS011;352;48.626;9.238;2023-04-15T18:58:47;3.25;;;2.80;;
735;SDS011;352;48.626;9.238;2023-04-15T19:01:17;2.65;;;2.10;;
735;SDS011;352;48.626;9.238;2023-04-15T19:07:06;2.95;;;2.75;;
735;SDS011;352;48.626;9.238;2023-04-15T19:09:33;2.30;;;2.10;;
735;SDS011;352;48.626;9.238;2023-04-15T19:12:16;3.30;;;3.00;;
735;SDS011;352;48.626;9.238;2023-04-15T19:14:47;2.50;;;2.30;;
735;SDS011;352;48.626;9.238;2023-04-15T19:17:20;6.10;;;2.90;;
735;SDS011;352;48.626;9.238;2023-04-15T19:19:58;2.58;;;2.38;;
735;SDS011;352;48.626;9.238;2023-04-15T19:22:25;3.22;;;2.60;;
735;SDS011;352;48.626;9.238;2023-04-15T19:24:53;4.30;;;3.20;;
735;SDS011;352;48.626;9.238;2023-04-15T19:27:20;2.92;;;2.72;;
735;SDS011;352;48.626;9.238;2023-04-15T19:29:48;6.15;;;4.47;;
735;SDS011;352;48.626;9.238;2023-04-15T19:32:15;9.00;;;7.88;;
735;SDS011;352;48.626;9.238;2023-04-15T19:34:44;5.35;;;4.85;;
735;SDS011;352;48.626;9.238;2023-04-15T19:37:34;3.75;;;3.30;;
735;SDS011;352;48.626;9.238;2023-04-15T19:40:03;4.20;;;3.83;;
735;SDS011;352;48.626;9.238;2023-04-15T19:42:30;3.95;;;3.65;;
735;SDS011;352;48.626;9.238;2023-04-15T19:44:58;5.22;;;4.05;;
735;SDS011;352;48.626;9.238;2023-04-15T19:47:26;4.30;;;3.60;;
735;SDS011;352;48.626;9.238;2023-04-15T19:49:53;3.88;;;3.58;;
735;SDS011;352;48.626;9.238;2023-04-15T19:52:19;3.50;;;3.20;;
735;SDS011;352;48.626;9.238;2023-04-15T19:54:47;4.28;;;3.97;;
735;SDS011;352;48.626;9.238;2023-04-15T19:57:13;3.55;;;3.25;;
735;SDS011;352;48.626;9.238;2023-04-15T19:59:40;4.15;;;3.78;;
735;SDS011;352;48.626;9.238;2023-04-15T20:02:08;4.05;;;3.75;;
735;SDS011;352;48.626;9.238;2023-04-15T20:04:35;3.90;;;3.60;;
735;SDS011;352;48.626;9.238;2023-04-15T20:07:02;4.50;;;4.20;;
735;SDS011;352;48.626;9.238;2023-04-15T20:09:28;4.60;;;4.20;;
735;SDS011;352;48.626;9.238;2023-04-15T20:11:55;4.97;;;4.25;;
735;SDS011;352;48.626;9.238;2023-04-15T20:14:22;4.80;;;4.40;;
735;SDS011;352;48.626;9.238;2023-04-15T20:16:49;6.25;;;5.65;;
735;SDS011;352;48.626;9.238;2023-04-15T20:19:17;4.55;;;4.15;;
735;SDS011;352;48.626;9.238;2023-04-15T20:21:44;4.65;;;4.25;;
735;SDS011;352;48.626;9.238;2023-04-15T20:24:11;3.97;;;3.67;;
735;SDS011;352;48.626;9.238;2023-04-15T20:26:38;4.78;;;4.38;;
735;SDS011;352;48.626;9.238;2023-04-15T20:29:04;4.65;;;4.25;;
735;SDS011;352;48.626;9.238;2023-04-15T20:31:31;4.15;;;3.85;;
735;SDS011;352;48.626;9.238;2023-04-15T20:33:58;4.28;;;3.88;;
735;SDS011;352;48.626;9.238;2023-04-15T20:36:26;3.95;;;3.65;;
735;SDS011;352;48.626;9.238;2023-04-15T20:38:52;4.38;;;3.97;;
735;SDS011;352;48.626;9.238;2023-04-15T20:41:19;4.40;;;4.00;;
735;SDS011;352;48.626;9.238;2023-04-15T20:43:47;5.35;;;4.85;;
735;SDS011;352;48.626;9.238;2023-04-15T20:46:14;5.50;;;5.00;;
735;SDS011;352;48.626;9.238;2023-04-15T20:48:40;5.20;;;4.70;;
735;SDS011;352;48.626;9.238;2023-04-15T20:51:07;5.30;;;4.30;;
735;SDS011;352;48.626;9.238;2023-04-15T20:53:35;4.10;;;3.80;;
735;SDS011;352;48.626;9.238;2023-04-15T20:56:02;5.10;;;4.70;;
735;SDS011;352;48.626;9.238;2023-04-15T20:58:29;4.32;;;3.95;;
735;SDS011;352;48.626;9.238;2023-04-15T21:00:56;4.63;;;4.22;;
735;SDS011;352;48.626;9.238;2023-04-15T21:03:23;4.68;;;4.25;;
735;SDS011;352;48.626;9.238;2023-04-15T21:05:49;4.55;;;4.15;;
735;SDS011;352;48.626;9.238;2023-04-15T21:08:16;4.00;;;3.60;;
735;SDS011;352;48.626;9.238;2023-04-15T21:10:44;5.05;;;4.47;;
735;SDS011;352;48.626;9.238;2023-04-15T21:13:11;4.40;;;4.00;;
735;SDS011;352;48.626;9.238;2023-04-15T21:15:41;4.43;;;4.03;;
735;SDS011;352;48.626;9.238;2023-04-15T21:18:08;5.50;;;4.95;;
735;SDS011;352;48.626;9.238;2023-04-15T21:20:35;8.65;;;6.40;;
735;SDS011;352;48.626;9.238;2023-04-15T21:23:02;7.38;;;5.10;;
735;SDS011;352;48.626;9.238;2023-04-15T21:25:28;4.70;;;4.30;;
735;SDS011;352;48.626;9.238;2023-04-15T21:27:56;7.18;;;5.10;;
735;SDS011;352;48.626;9.238;2023-04-15T21:30:23;5.70;;;5.20;;
735;SDS011;352;48.626;9.238;2023-04-15T21:32:50;6.07;;;5.47;;
735;SDS011;352;48.626;9.238;2023-04-15T21:35:16;5.50;;;5.00;;
735;SDS011;352;48.626;9.238;2023-04-15T21:37:43;5.75;;;5.25;;
735;SDS011;352;48.626;9.238;2023-04-15T21:40:10;6.85;;;4.93;;
735;SDS011;352;48.626;9.238;2023-04-15T21:42:38;5.88;;;5.28;;
735;SDS011;352;48.626;9.238;2023-04-15T21:45:07;5.90;;;5.35;;
735;SDS011;352;48.626;9.238;2023-04-15T21:47:34;5.88;;;4.47;;
735;SDS011;352;48.626;9.238;2023-04-15T21:50:01;5.00;;;4.50;;
735;SDS011;352;48.626;9.238;2023-04-15T21:52:27;5.15;;;4.75;;
735;SDS011;352;48.626;9.238;2023-04-15T21:54:54;4.70;;;4.30;;
735;SDS011;352;48.626;9.238;2023-04-15T21:57:21;4.75;;;4.35;;
735;SDS011;352;48.626;9.238;2023-04-15T21:59:47;4.68;;;4.28;;
735;SDS011;352;48.626;9.238;2023-04-15T22:02:16;4.50;;;4.10;;
735;SDS011;352;48.626;9.238;2023-04-15T22:04:42;4.75;;;4.20;;
735;SDS011;352;48.626;9.238;2023-04-15T22:07:09;5.43;;;4.97;;
735;SDS011;352;48.626;9.238;2023-04-15T22:09:36;4.88;;;4.38;;
735;SDS011;352;48.626;9.238;2023-04-15T22:12:03;4.90;;;4.50;;
735;SDS011;352;48.626;9.238;2023-04-15T22:14:29;5.68;;;5.18;;
735;SDS011;352;48.626;9.238;2023-04-15T22:16:56;5.60;;;5.10;;
735;SDS011;352;48.626;9.238;2023-04-15T22:19:24;4.90;;;4.40;;
735;SDS011;352;48.626;9.238;2023-04-15T22:21:51;5.13;;;4.63;;
735;SDS011;352;48.626;9.238;2023-04-15T22:24:18;5.75;;;5.25;;
735;SDS011;352;48.626;9.238;2023-04-15T22:26:45;5.85;;;5.25;;
735;SDS011;352;48.626;9.238;2023-04-15T22:29:11;5.32;;;4.82;;